createdAt,value
2018-01-10T00:00:11.087Z,92.25
2018-01-10T00:02:41.838Z,92.68
2018-01-10T00:05:13.647Z,92.72
2018-01-10T00:07:44.562Z,92.54
2018-01-10T00:10:17.185Z,92.33
2018-01-10T00:12:49.102Z,93.94
2018-01-10T00:15:20.079Z,94.07
2018-01-10T00:17:51.189Z,93.89
2018-01-10T00:20:22.219Z,93.40
2018-01-10T00:22:55.374Z,92.55
2018-01-10T00:25:26.830Z,92.96
2018-01-10T00:27:57.435Z,92.96
2018-01-10T00:30:28.615Z,93.84
2018-01-10T00:32:59.530Z,93.58
2018-01-10T00:35:30.374Z,93.26
2018-01-10T00:38:01.780Z,92.83
2018-01-10T00:40:33.051Z,92.06
2018-01-10T00:43:03.807Z,93.06
2018-01-10T00:45:34.894Z,93.47
2018-01-10T00:48:05.839Z,93.65
2018-01-10T00:50:36.590Z,96.32
2018-01-10T00:53:08.194Z,96.36
2018-01-10T00:55:39.153Z,96.04
2018-01-10T00:58:10.477Z,95.28
2018-01-10T01:00:42.379Z,96.07
2018-01-10T01:03:13.686Z,94.62
2018-01-10T01:05:44.526Z,93.93
2018-01-10T01:08:15.271Z,93.59
2018-01-10T01:10:45.942Z,93.00
2018-01-10T01:13:16.934Z,94.51
2018-01-10T01:15:47.896Z,94.48
2018-01-10T01:18:19.112Z,94.27
2018-01-10T01:20:51.297Z,94.26
2018-01-10T01:23:22.023Z,93.97
2018-01-10T01:25:52.787Z,96.72
2018-01-10T01:28:24.203Z,95.31
2018-01-10T01:30:55.718Z,95.36
2018-01-10T01:33:27.946Z,96.53
2018-01-10T01:35:58.669Z,96.78
2018-01-10T01:38:29.495Z,94.74
2018-01-10T01:41:00.978Z,95.66
2018-01-10T01:43:31.703Z,94.17
2018-01-10T01:46:02.947Z,94.10
2018-01-10T01:48:33.987Z,94.19
2018-01-10T01:51:04.706Z,96.32
2018-01-10T01:53:35.733Z,96.65
2018-01-10T01:56:06.533Z,94.34
2018-01-10T01:58:37.173Z,95.22
2018-01-10T02:01:09.158Z,94.48
2018-01-10T02:03:40.718Z,95.53
2018-01-10T02:06:12.054Z,98.55
2018-01-10T02:08:43.196Z,96.98
2018-01-10T02:11:14.279Z,99.41
2018-01-10T02:13:44.993Z,100.00
2018-01-10T02:16:16.557Z,100.00
2018-01-10T02:18:48.081Z,100.00
2018-01-10T02:21:19.894Z,100.00
2018-01-10T02:23:50.997Z,100.00
2018-01-10T02:26:21.793Z,100.00
2018-01-10T02:28:52.946Z,100.00
2018-01-10T02:31:24.644Z,100.00
2018-01-10T02:33:56.197Z,100.00
2018-01-10T02:36:27.854Z,98.97
2018-01-10T02:38:59.562Z,97.35
2018-01-10T02:41:30.229Z,95.65
2018-01-10T02:44:01.486Z,95.92
2018-01-10T02:46:32.895Z,94.52
2018-01-10T02:49:03.762Z,95.36
2018-01-10T02:51:35.042Z,98.98
2018-01-10T02:54:05.817Z,100.00
2018-01-10T02:56:38.614Z,100.00
2018-01-10T02:59:11.205Z,100.00
2018-01-10T03:01:42.026Z,100.00
2018-01-10T03:04:12.905Z,100.00
2018-01-10T03:06:43.907Z,100.00
2018-01-10T03:09:14.667Z,100.00
2018-01-10T03:11:45.861Z,100.00
2018-01-10T03:14:16.682Z,100.00
2018-01-10T03:16:47.997Z,100.00
2018-01-10T03:19:19.019Z,99.61
2018-01-10T03:21:49.755Z,100.00
2018-01-10T03:24:20.856Z,100.00
2018-01-10T03:26:54.766Z,100.00
2018-01-10T03:29:25.743Z,100.00
2018-01-10T03:31:56.792Z,100.00
2018-01-10T03:34:27.580Z,100.00
2018-01-10T03:37:00.760Z,100.00
2018-01-10T03:39:32.194Z,100.00
2018-01-10T03:42:05.319Z,100.00
2018-01-10T03:44:36.102Z,100.00
2018-01-10T03:47:06.973Z,100.00
2018-01-10T03:49:42.166Z,100.00
2018-01-10T03:52:12.954Z,100.00
2018-01-10T03:54:44.744Z,100.00
2018-01-10T03:57:15.996Z,100.00
2018-01-10T03:59:56.011Z,100.00
2018-01-10T04:02:27.936Z,100.00
2018-01-10T04:04:59.611Z,100.00
2018-01-10T04:07:31.278Z,100.00
2018-01-10T04:10:08.365Z,100.00
2018-01-10T04:12:39.632Z,100.00
2018-01-10T04:15:13.237Z,100.00
2018-01-10T04:17:45.669Z,100.00
2018-01-10T04:20:16.855Z,100.00
2018-01-10T04:22:49.009Z,100.00
2018-01-10T04:25:23.499Z,100.00
2018-01-10T04:27:55.422Z,100.00
2018-01-10T04:30:26.248Z,100.00
2018-01-10T04:33:01.332Z,100.00
2018-01-10T04:35:33.172Z,100.00
2018-01-10T04:38:03.884Z,100.00
2018-01-10T04:40:38.458Z,100.00
2018-01-10T04:43:10.124Z,98.94
2018-01-10T04:45:41.741Z,98.35
2018-01-10T04:48:13.192Z,98.16
2018-01-10T04:50:44.219Z,100.00
2018-01-10T04:53:15.248Z,100.00
2018-01-10T04:55:46.447Z,100.00
2018-01-10T04:58:17.156Z,100.00
2018-01-10T05:00:49.157Z,100.00
2018-01-10T05:03:20.225Z,100.00
2018-01-10T05:05:51.969Z,100.00
2018-01-10T05:08:22.787Z,100.00
2018-01-10T05:10:54.019Z,100.00
2018-01-10T05:13:27.145Z,100.00
2018-01-10T05:16:07.568Z,100.00
2018-01-10T05:18:41.278Z,100.00
2018-01-10T05:21:12.813Z,100.00
2018-01-10T05:23:43.749Z,100.00
2018-01-10T05:26:14.704Z,97.05
2018-01-10T05:28:46.145Z,93.85
2018-01-10T05:33:47.066Z,93.90
2018-01-10T05:36:19.092Z,93.66
2018-01-10T05:38:54.783Z,94.43
2018-01-10T05:41:25.607Z,95.41
2018-01-10T05:43:56.860Z,92.64
2018-01-10T05:46:33.556Z,93.19
2018-01-10T05:49:05.288Z,94.41
2018-01-10T05:51:41.197Z,93.16
2018-01-10T05:54:12.655Z,93.88
2018-01-10T05:56:52.677Z,97.77
2018-01-10T05:59:25.398Z,98.38
2018-01-10T06:01:57.261Z,95.86
2018-01-10T06:04:31.622Z,94.80
2018-01-10T06:07:10.418Z,96.67
2018-01-10T06:12:48.981Z,100.00
2018-01-10T06:15:22.819Z,100.00
2018-01-10T06:17:56.851Z,98.48
2018-01-10T06:20:29.143Z,98.07
2018-01-10T06:23:10.119Z,96.61
2018-01-10T06:25:44.816Z,95.07
2018-01-10T06:28:17.508Z,96.06
2018-01-10T06:30:48.543Z,98.34
2018-01-10T06:33:21.773Z,99.80
2018-01-10T06:35:53.721Z,97.88
2018-01-10T06:38:25.389Z,96.16
2018-01-10T06:40:56.655Z,94.93
2018-01-10T06:43:28.347Z,94.87
2018-01-10T06:46:00.466Z,95.59
2018-01-10T06:48:33.566Z,95.72
2018-01-10T06:51:04.280Z,97.31
2018-01-10T06:53:35.580Z,95.66
2018-01-10T06:56:09.911Z,98.03
2018-01-10T06:58:45.581Z,100.00
2018-01-10T07:01:19.923Z,100.00
2018-01-10T07:03:52.613Z,100.00
2018-01-10T07:06:23.776Z,100.00
2018-01-10T07:08:54.816Z,100.00
2018-01-10T07:11:25.896Z,99.33
2018-01-10T07:13:56.812Z,98.55
2018-01-10T07:16:27.522Z,99.99
2018-01-10T07:18:58.693Z,97.80
2018-01-10T07:21:30.821Z,98.96
2018-01-10T07:24:01.756Z,95.44
2018-01-10T07:26:35.358Z,95.59
2018-01-10T07:29:07.975Z,96.88
2018-01-10T07:31:40.597Z,95.25
2018-01-10T07:34:13.781Z,95.29
2018-01-10T07:36:51.786Z,98.51
2018-01-10T07:39:25.454Z,97.88
2018-01-10T07:42:01.039Z,100.00
2018-01-10T07:44:33.845Z,100.00
2018-01-10T07:47:06.144Z,100.00
2018-01-10T07:49:37.801Z,99.83
2018-01-10T07:52:17.699Z,99.04
2018-01-10T07:54:50.850Z,100.00
2018-01-10T07:57:26.015Z,100.00
2018-01-10T08:00:00.222Z,98.72
2018-01-10T08:02:33.001Z,98.54
2018-01-10T08:05:04.129Z,99.58
2018-01-10T08:07:35.572Z,99.63
2018-01-10T08:10:07.334Z,100.00
2018-01-10T08:12:38.486Z,100.00
2018-01-10T08:15:12.214Z,100.00
2018-01-10T08:17:43.318Z,100.00
2018-01-10T08:20:14.339Z,99.69
2018-01-10T08:22:50.156Z,100.00
2018-01-10T08:25:23.656Z,100.00
2018-01-10T08:27:56.030Z,98.93
2018-01-10T08:30:31.625Z,100.00
2018-01-10T08:33:05.701Z,99.95
2018-01-10T08:35:38.350Z,100.00
2018-01-10T08:38:11.993Z,100.00
2018-01-10T08:40:44.279Z,100.00
2018-01-10T08:43:15.626Z,96.88
2018-01-10T08:45:48.069Z,96.22
2018-01-10T08:48:20.695Z,93.80
2018-01-10T08:50:51.672Z,94.90
2018-01-10T08:53:22.602Z,97.25
2018-01-10T08:55:53.887Z,98.71
2018-01-10T08:58:29.058Z,99.66
2018-01-10T09:01:00.283Z,100.00
2018-01-10T09:03:31.487Z,97.48
2018-01-10T09:06:02.932Z,98.61
2018-01-10T09:08:37.022Z,100.00
2018-01-10T09:11:08.044Z,99.67
2018-01-10T09:13:38.900Z,95.54
2018-01-10T09:16:10.134Z,93.45
2018-01-10T09:18:41.410Z,92.78
2018-01-10T09:21:15.125Z,93.02
2018-01-10T09:23:46.741Z,92.66
2018-01-10T09:26:20.611Z,93.08
2018-01-10T09:28:52.249Z,95.23
2018-01-10T09:31:23.478Z,95.55
2018-01-10T09:34:02.118Z,96.41
2018-01-10T09:36:36.948Z,95.60
2018-01-10T09:39:10.310Z,95.17
2018-01-10T09:41:44.159Z,94.29
2018-01-10T09:44:19.197Z,93.22
2018-01-10T09:46:53.724Z,92.19
2018-01-10T09:49:25.265Z,91.15
2018-01-10T09:51:57.601Z,91.40
2018-01-10T09:54:39.595Z,90.91
2018-01-10T09:57:10.795Z,89.65
2018-01-10T09:59:42.418Z,88.86
2018-01-10T10:04:55.050Z,89.59
2018-01-10T10:07:26.106Z,88.79
2018-01-10T10:09:57.153Z,89.38
2018-01-10T10:12:28.352Z,88.45
2018-01-10T10:14:59.199Z,88.01
2018-01-10T10:17:30.432Z,87.76
2018-01-10T10:20:03.015Z,89.81
2018-01-10T10:22:34.004Z,90.71
2018-01-10T10:25:05.124Z,89.95
2018-01-10T10:27:37.011Z,89.95
2018-01-10T10:30:12.261Z,91.48
2018-01-10T10:32:43.784Z,91.61
2018-01-10T10:35:15.988Z,90.72
2018-01-10T10:37:46.994Z,92.26
2018-01-10T10:40:17.943Z,91.71
2018-01-10T10:42:49.375Z,92.35
2018-01-10T10:45:20.283Z,92.87
2018-01-10T10:47:51.579Z,92.53
2018-01-10T10:50:23.888Z,93.69
2018-01-10T10:52:55.077Z,93.85
2018-01-10T10:55:26.704Z,94.27
2018-01-10T10:57:57.730Z,92.22
2018-01-10T11:00:28.803Z,90.79
2018-01-10T11:03:00.194Z,88.92
2018-01-10T11:05:31.127Z,87.68
2018-01-10T11:08:02.835Z,85.97
2018-01-10T11:10:33.674Z,86.47
2018-01-10T11:13:04.538Z,86.83
2018-01-10T11:15:35.318Z,87.01
2018-01-10T11:18:07.607Z,87.16
2018-01-10T11:20:39.551Z,87.29
2018-01-10T11:23:11.521Z,88.32
2018-01-10T11:25:42.886Z,89.56
2018-01-10T11:28:22.487Z,88.52
2018-01-10T11:30:53.905Z,87.35
2018-01-10T11:33:27.115Z,87.90
2018-01-10T11:36:01.915Z,87.40
2018-01-10T11:38:32.961Z,86.36
2018-01-10T11:41:05.817Z,85.31
2018-01-10T11:43:37.365Z,86.24
2018-01-10T11:46:14.530Z,83.47
2018-01-10T11:48:46.093Z,84.40
2018-01-10T11:51:17.164Z,86.24
2018-01-10T11:53:49.064Z,85.47
2018-01-10T11:56:20.738Z,84.43
2018-01-10T11:58:52.097Z,84.35
2018-01-10T12:01:23.228Z,83.08
2018-01-10T12:03:57.553Z,82.00
2018-01-10T12:06:28.599Z,82.64
2018-01-10T12:08:59.456Z,82.24
2018-01-10T12:11:31.844Z,81.57
2018-01-10T12:14:03.198Z,82.64
2018-01-10T12:16:38.025Z,82.25
2018-01-10T12:19:11.548Z,81.87
2018-01-10T12:21:42.845Z,82.71
2018-01-10T12:24:14.114Z,82.38
2018-01-10T12:26:49.105Z,82.70
2018-01-10T12:29:20.338Z,83.29
2018-01-10T12:31:53.036Z,80.30
2018-01-10T12:34:25.468Z,79.48
2018-01-10T12:36:58.710Z,77.21
2018-01-10T12:39:31.880Z,77.94
2018-01-10T12:42:04.129Z,76.75
2018-01-10T12:44:37.532Z,74.74
2018-01-10T12:47:11.159Z,74.12
2018-01-10T12:49:45.528Z,75.34
2018-01-10T12:52:17.253Z,74.15
2018-01-10T12:54:57.791Z,74.72
2018-01-10T12:57:28.921Z,75.01
2018-01-10T13:00:00.398Z,76.62
2018-01-10T13:02:33.093Z,76.33
2018-01-10T13:05:05.617Z,75.27
2018-01-10T13:07:36.821Z,77.50
2018-01-10T13:10:11.808Z,75.75
2018-01-10T13:12:43.115Z,75.76
2018-01-10T13:15:14.402Z,77.25
2018-01-10T13:17:45.403Z,77.63
2018-01-10T13:20:18.364Z,76.59
2018-01-10T13:22:49.919Z,76.62
2018-01-10T13:25:21.111Z,76.44
2018-01-10T13:27:52.435Z,75.71
2018-01-10T13:30:24.722Z,76.36
2018-01-10T13:32:57.420Z,76.51
2018-01-10T13:35:28.914Z,74.97
2018-01-10T13:37:59.894Z,76.04
2018-01-10T13:40:31.569Z,74.95
2018-01-10T13:43:02.917Z,76.40
2018-01-10T13:45:34.098Z,75.23
2018-01-10T13:48:05.016Z,75.52
2018-01-10T13:50:35.875Z,76.36
2018-01-10T13:53:06.936Z,76.03
2018-01-10T13:55:38.164Z,76.00
2018-01-10T13:58:09.483Z,77.06
2018-01-10T14:00:41.175Z,75.95
2018-01-10T14:03:12.608Z,74.80
2018-01-10T14:05:43.979Z,77.33
2018-01-10T14:08:14.814Z,76.64
2018-01-10T14:10:46.072Z,76.99
2018-01-10T14:13:17.012Z,77.44
2018-01-10T14:15:48.016Z,77.91
2018-01-10T14:18:19.019Z,77.85
2018-01-10T14:20:50.544Z,78.50
2018-01-10T14:23:21.896Z,78.67
2018-01-10T14:25:52.936Z,79.27
2018-01-10T14:28:23.917Z,78.58
2018-01-10T14:30:55.351Z,79.16
2018-01-10T14:33:26.377Z,79.75
2018-01-10T14:35:59.361Z,80.01
2018-01-10T14:38:30.380Z,79.68
2018-01-10T14:41:01.604Z,79.84
2018-01-10T14:43:32.651Z,80.39
2018-01-10T14:46:04.191Z,80.22
2018-01-10T14:48:35.132Z,80.77
2018-01-10T14:51:07.067Z,81.53
2018-01-10T14:53:40.234Z,80.64
2018-01-10T14:56:11.964Z,81.43
2018-01-10T14:58:44.099Z,83.20
2018-01-10T15:01:15.212Z,84.22
2018-01-10T15:03:46.336Z,84.90
2018-01-10T15:06:17.609Z,85.50
2018-01-10T15:08:50.518Z,85.41
2018-01-10T15:11:22.315Z,85.01
2018-01-10T15:13:54.935Z,85.05
2018-01-10T15:16:27.308Z,85.37
2018-01-10T15:18:58.862Z,84.20
2018-01-10T15:21:32.767Z,85.43
2018-01-10T15:24:05.806Z,84.77
2018-01-10T15:26:44.446Z,84.21
2018-01-10T15:29:16.456Z,84.38
2018-01-10T15:31:50.970Z,85.06
2018-01-10T15:34:28.616Z,83.22
2018-01-10T15:37:00.211Z,83.80
2018-01-10T15:39:33.696Z,83.48
2018-01-10T15:42:05.710Z,84.71
2018-01-10T15:44:39.138Z,85.65
2018-01-10T15:47:17.049Z,85.88
2018-01-10T15:49:50.286Z,87.30
2018-01-10T15:52:26.063Z,87.63
2018-01-10T15:54:58.217Z,87.81
2018-01-10T15:57:30.195Z,87.16
2018-01-10T16:00:02.421Z,87.15
2018-01-10T16:02:34.268Z,88.41
2018-01-10T16:05:05.541Z,86.38
2018-01-10T16:07:37.221Z,86.47
2018-01-10T16:10:09.482Z,86.89
2018-01-10T16:12:42.935Z,87.47
2018-01-10T16:15:15.575Z,86.66
2018-01-10T16:17:47.430Z,87.70
2018-01-10T16:20:20.659Z,85.93
2018-01-10T16:22:54.345Z,85.88
2018-01-10T16:25:27.456Z,85.74
2018-01-10T16:28:02.210Z,86.23
2018-01-10T16:30:37.758Z,86.85
2018-01-10T16:33:10.036Z,88.17
2018-01-10T16:35:42.373Z,87.24
2018-01-10T16:38:15.871Z,86.88
2018-01-10T16:40:47.742Z,86.11
2018-01-10T16:43:19.961Z,84.73
2018-01-10T16:45:51.998Z,85.39
2018-01-10T16:48:23.692Z,85.46
2018-01-10T16:50:55.117Z,86.54
2018-01-10T16:53:26.269Z,86.79
2018-01-10T16:55:59.425Z,88.21
2018-01-10T16:58:31.016Z,85.79
2018-01-10T17:01:02.407Z,85.71
2018-01-10T17:06:09.336Z,86.72
2018-01-10T17:08:41.124Z,85.58
2018-01-10T17:11:12.874Z,84.83
2018-01-10T17:13:44.379Z,85.25
2018-01-10T17:16:17.086Z,84.61
2018-01-10T17:18:49.528Z,84.81
2018-01-10T17:21:22.841Z,84.09
2018-01-10T17:23:57.462Z,85.03
2018-01-10T17:26:30.956Z,85.53
2018-01-10T17:29:02.945Z,85.73
2018-01-10T17:31:42.696Z,85.59
2018-01-10T17:34:14.990Z,84.44
2018-01-10T17:36:48.933Z,84.02
2018-01-10T17:39:21.051Z,84.57
2018-01-10T17:42:03.251Z,85.78
2018-01-10T17:44:34.803Z,84.68
2018-01-10T17:47:07.965Z,84.75
2018-01-10T17:49:40.261Z,86.21
2018-01-10T17:52:12.816Z,85.13
2018-01-10T17:54:43.949Z,86.40
2018-01-10T17:57:15.529Z,86.95
2018-01-10T17:59:49.710Z,86.28
2018-01-10T18:02:21.072Z,85.98
2018-01-10T18:04:53.621Z,85.96
2018-01-10T18:07:25.287Z,87.03
2018-01-10T18:09:59.793Z,86.44
2018-01-10T18:12:31.822Z,85.82
2018-01-10T18:15:05.911Z,86.64
2018-01-10T18:17:40.621Z,86.63
2018-01-10T18:20:16.147Z,87.41
2018-01-10T18:22:47.857Z,87.17
2018-01-10T18:25:20.844Z,85.16
2018-01-10T18:27:52.540Z,84.99
2018-01-10T18:30:25.176Z,85.80
2018-01-10T18:33:00.955Z,86.71
2018-01-10T18:35:33.467Z,87.78
2018-01-10T18:38:06.954Z,89.21
2018-01-10T18:40:39.203Z,90.43
2018-01-10T18:43:10.677Z,88.89
2018-01-10T18:45:45.071Z,88.58
2018-01-10T18:48:17.165Z,86.03
2018-01-10T18:50:51.469Z,87.13
2018-01-10T18:53:25.413Z,87.86
2018-01-10T18:55:59.521Z,89.05
2018-01-10T18:58:35.413Z,90.54
2018-01-10T19:01:14.526Z,88.28
2018-01-10T19:03:48.541Z,89.80
2018-01-10T19:06:23.538Z,91.14
2018-01-10T19:08:58.800Z,92.55
2018-01-10T19:11:30.923Z,88.95
2018-01-10T19:14:06.047Z,88.51
2018-01-10T19:16:38.468Z,88.72
2018-01-10T19:19:11.128Z,88.61
2018-01-10T19:21:44.837Z,88.65
2018-01-10T19:24:20.033Z,87.06
2018-01-10T19:26:56.853Z,89.03
2018-01-10T19:29:29.337Z,88.39
2018-01-10T19:32:01.796Z,87.68
2018-01-10T19:34:35.550Z,88.72
2018-01-10T19:37:08.655Z,88.09
2018-01-10T19:39:40.142Z,89.40
2018-01-10T19:42:13.452Z,90.44
2018-01-10T19:44:46.759Z,92.19
2018-01-10T19:47:18.777Z,96.16
2018-01-10T19:51:15.565Z,91.66
2018-01-10T19:53:47.966Z,90.20
2018-01-10T19:56:19.596Z,90.75
2018-01-10T19:58:53.750Z,89.26
2018-01-10T20:01:26.280Z,89.84
2018-01-10T20:03:58.443Z,90.40
2018-01-10T20:09:10.087Z,94.74
2018-01-10T20:11:42.696Z,95.19
2018-01-10T20:14:16.221Z,96.48
2018-01-10T20:16:49.660Z,92.29
2018-01-10T20:19:24.079Z,96.23
2018-01-10T20:21:57.091Z,91.36
2018-01-10T20:24:32.286Z,94.14
2018-01-10T20:27:04.747Z,93.55
2018-01-10T20:29:38.511Z,93.79
2018-01-10T20:32:12.248Z,92.39
2018-01-10T20:34:45.303Z,90.46
2018-01-10T20:37:22.937Z,89.74
2018-01-10T20:40:00.990Z,88.74
2018-01-10T20:42:37.571Z,89.93
2018-01-10T20:45:10.673Z,89.76
2018-01-10T20:47:45.783Z,92.53
2018-01-10T20:50:19.090Z,94.80
2018-01-10T20:52:52.352Z,91.07
2018-01-10T20:55:25.494Z,94.44
2018-01-10T20:57:57.552Z,95.98
2018-01-10T21:00:28.818Z,93.49
2018-01-10T21:03:03.016Z,96.88
2018-01-10T21:05:36.306Z,95.85
2018-01-10T21:08:09.159Z,97.54
2018-01-10T21:10:41.466Z,98.23
2018-01-10T21:13:12.830Z,100.00
2018-01-10T21:15:44.767Z,97.16
2018-01-10T21:18:15.648Z,93.55
2018-01-10T21:20:48.020Z,97.46
2018-01-10T21:23:21.940Z,94.18
2018-01-10T21:25:54.242Z,96.04
2018-01-10T21:28:26.688Z,98.84
2018-01-10T21:33:43.818Z,98.80
2018-01-10T21:36:16.715Z,98.03
2018-01-10T21:38:48.198Z,97.11
2018-01-10T21:41:19.727Z,98.79
2018-01-10T21:43:51.993Z,100.00
2018-01-10T21:46:25.370Z,100.00
2018-01-10T21:48:56.898Z,100.00
2018-01-10T21:51:29.461Z,100.00
2018-01-10T21:54:01.794Z,99.39
2018-01-10T21:56:33.310Z,98.53
2018-01-10T21:59:06.059Z,98.44
2018-01-10T22:01:37.959Z,98.20
2018-01-10T22:04:10.683Z,96.89
2018-01-10T22:06:42.523Z,93.63
2018-01-10T22:09:15.401Z,91.11
2018-01-10T22:11:47.065Z,90.81
2018-01-10T22:14:18.071Z,94.41
2018-01-10T22:16:49.946Z,91.56
2018-01-10T22:19:23.544Z,91.60
2018-01-10T22:21:55.020Z,93.03
2018-01-10T22:24:26.971Z,91.84
2018-01-10T22:26:58.947Z,93.14
2018-01-10T22:29:29.953Z,93.21
2018-01-10T22:32:01.284Z,93.37
2018-01-10T22:34:32.827Z,94.49
2018-01-10T22:37:04.502Z,96.03
2018-01-10T22:39:35.776Z,97.45
2018-01-10T22:42:10.128Z,100.00
2018-01-10T22:44:42.553Z,100.00
2018-01-10T22:47:14.935Z,100.00
2018-01-10T22:49:46.029Z,100.00
2018-01-10T22:52:17.028Z,100.00
2018-01-10T22:54:49.072Z,100.00
2018-01-10T22:57:20.047Z,100.00
2018-01-10T22:59:51.875Z,100.00
2018-01-10T23:02:24.717Z,95.58
2018-01-10T23:04:57.388Z,90.88
2018-01-10T23:07:29.096Z,90.65
2018-01-10T23:10:02.500Z,93.19
2018-01-10T23:12:35.052Z,93.42
2018-01-10T23:15:05.869Z,91.49
2018-01-10T23:17:39.205Z,95.57
2018-01-10T23:20:12.041Z,97.19
2018-01-10T23:22:42.972Z,97.30
2018-01-10T23:25:14.777Z,93.93
2018-01-10T23:27:45.969Z,90.68
2018-01-10T23:30:16.989Z,94.37
2018-01-10T23:32:49.354Z,97.32
2018-01-10T23:35:20.088Z,92.57
2018-01-10T23:37:51.180Z,90.74
2018-01-10T23:40:22.595Z,89.99
2018-01-10T23:42:54.568Z,90.16
2018-01-10T23:45:27.572Z,90.43
2018-01-10T23:47:58.827Z,90.25
2018-01-10T23:50:30.177Z,89.37
2018-01-10T23:53:01.613Z,88.54
2018-01-10T23:55:32.511Z,92.35
2018-01-10T23:58:03.751Z,91.23
